Time;durP1;ratioP1;P1;durP2;ratioP2;P2;SDS_P1;SDS_P2;PMS_P1;PMS_P2;Temp;Humidity;BMP_temperature;BMP_pressure;BME280_temperature;BME280_humidity;BME280_pressure;Samples;Min_cycle;Max_cycle;Signal;HPM_P1;HPM_P2
2021/09/04 00:02:21;;;;;;;13.88;10.63;;;16.00;99.50;;;;;;4998743;28;20034;-85
2021/09/04 00:04:46;;;;;;;13.57;10.25;;;15.90;99.50;;;;;;4998757;28;20053;-85
2021/09/04 00:07:12;;;;;;;15.35;10.45;;;15.90;99.50;;;;;;4999567;28;20081;-84
2021/09/04 00:09:37;;;;;;;14.40;10.20;;;15.90;99.50;;;;;;4998791;28;20038;-84
2021/09/04 00:12:04;;;;;;;13.35;9.80;;;15.90;99.60;;;;;;4982012;28;20073;-84
2021/09/04 00:14:31;;;;;;;17.05;10.45;;;15.80;99.60;;;;;;4998419;28;20124;-86
2021/09/04 00:16:56;;;;;;;13.82;10.43;;;15.80;99.60;;;;;;4981784;28;20038;-83
2021/09/04 00:19:22;;;;;;;17.42;10.13;;;15.80;99.70;;;;;;4998424;28;20416;-84
2021/09/04 00:21:47;;;;;;;15.80;10.93;;;15.80;99.70;;;;;;4997816;28;20030;-83
2021/09/04 00:24:13;;;;;;;15.35;10.35;;;15.80;99.70;;;;;;4998978;28;20084;-84
2021/09/04 00:26:38;;;;;;;16.25;10.85;;;15.80;99.70;;;;;;4981335;28;20042;-83
2021/09/04 00:29:04;;;;;;;14.13;10.70;;;15.70;99.70;;;;;;4981342;28;20081;-84
2021/09/04 00:31:29;;;;;;;16.90;10.98;;;15.70;99.70;;;;;;4980602;28;20046;-84
2021/09/04 00:33:55;;;;;;;13.05;9.80;;;15.70;99.70;;;;;;4981225;28;20097;-84
2021/09/04 00:36:20;;;;;;;15.75;10.90;;;15.70;99.70;;;;;;4981280;28;20038;-84
2021/09/04 00:38:46;;;;;;;14.52;9.75;;;15.70;99.80;;;;;;4981220;28;20042;-84
2021/09/04 00:41:16;;;;;;;16.60;11.13;;;15.70;99.80;;;;;;4997447;28;20100;-84
2021/09/04 00:43:42;;;;;;;15.55;10.63;;;15.70;99.80;;;;;;4981066;28;20042;-84
2021/09/04 00:46:09;;;;;;;15.57;10.38;;;15.70;99.80;;;;;;4981128;28;20394;-83
2021/09/04 00:48:35;;;;;;;14.57;10.43;;;15.60;99.80;;;;;;4997647;28;20112;-84
2021/09/04 00:51:01;;;;;;;18.38;10.18;;;15.60;99.80;;;;;;4980873;28;20125;-84
2021/09/04 00:53:27;;;;;;;19.58;11.32;;;15.60;99.80;;;;;;4981075;28;20157;-83
2021/09/04 00:55:52;;;;;;;17.23;11.25;;;15.60;99.80;;;;;;4980638;28;20045;-84
2021/09/04 00:58:18;;;;;;;15.35;11.48;;;15.60;99.80;;;;;;4998230;28;20042;-84
2021/09/04 01:00:49;;;;;;;17.00;12.32;;;15.60;99.80;;;;;;4980534;28;20104;-85
2021/09/04 01:03:15;;;;;;;18.02;11.90;;;15.60;99.80;;;;;;4981389;28;20038;-84
2021/09/04 01:05:40;;;;;;;17.02;11.27;;;15.60;99.90;;;;;;4997873;28;20049;-84
2021/09/04 01:08:06;;;;;;;18.52;12.13;;;15.50;99.90;;;;;;4997962;28;20053;-84
2021/09/04 01:10:32;;;;;;;15.70;11.10;;;15.50;99.90;;;;;;4980566;28;20042;-84
2021/09/04 01:12:57;;;;;;;19.83;11.32;;;15.50;99.90;;;;;;4980203;28;20397;-84
2021/09/04 01:15:23;;;;;;;16.58;11.88;;;15.50;99.90;;;;;;4997961;28;20045;-85
2021/09/04 01:17:48;;;;;;;17.35;11.70;;;15.50;99.90;;;;;;4980269;28;20041;-84
2021/09/04 01:20:14;;;;;;;20.55;12.43;;;15.50;99.90;;;;;;4997837;28;20038;-85
2021/09/04 01:22:39;;;;;;;22.33;11.18;;;15.40;99.90;;;;;;4997442;28;20042;-83
2021/09/04 01:25:08;;;;;;;18.80;12.57;;;15.50;99.90;;;;;;4981283;28;20054;-83
2021/09/04 01:27:36;;;;;;;21.30;12.35;;;15.40;99.90;;;;;;4997013;28;20050;-84
2021/09/04 01:30:04;;;;;;;19.90;12.40;;;15.40;99.90;;;;;;4997169;28;20077;-83
2021/09/04 01:32:30;;;;;;;21.35;12.48;;;15.40;99.90;;;;;;4980397;28;20042;-85
2021/09/04 01:35:07;;;;;;;17.98;11.65;;;15.30;99.90;;;;;;4980647;28;20048;-84
2021/09/04 01:37:32;;;;;;;22.27;12.25;;;15.30;99.90;;;;;;4997316;28;20100;-83
2021/09/04 01:39:58;;;;;;;16.33;11.38;;;15.30;99.90;;;;;;4980120;28;20349;-84
2021/09/04 01:42:23;;;;;;;20.88;11.73;;;15.30;99.90;;;;;;4997237;28;20038;-84
2021/09/04 01:44:49;;;;;;;19.08;11.73;;;15.30;99.90;;;;;;4980538;28;20046;-84
2021/09/04 01:47:14;;;;;;;20.15;12.18;;;15.30;99.90;;;;;;4997235;28;20057;-84
2021/09/04 01:49:40;;;;;;;20.83;12.55;;;15.30;99.90;;;;;;4980291;28;20275;-84
2021/09/04 01:52:06;;;;;;;18.58;12.52;;;15.30;99.90;;;;;;4996849;28;20085;-84
2021/09/04 01:54:31;;;;;;;15.82;10.50;;;15.20;99.90;;;;;;4980383;28;20453;-84
2021/09/04 01:57:02;;;;;;;18.45;11.98;;;15.20;99.90;;;;;;4996647;28;20491;-83
2021/09/04 01:59:27;;;;;;;19.45;12.52;;;15.20;99.90;;;;;;4979939;28;20046;-83
2021/09/04 02:01:53;;;;;;;21.48;13.05;;;15.10;99.90;;;;;;4980523;28;20042;-84
2021/09/04 02:04:19;;;;;;;18.77;11.75;;;15.10;99.90;;;;;;4980615;28;20133;-84
2021/09/04 02:06:44;;;;;;;21.75;13.23;;;15.10;99.90;;;;;;4979354;28;20062;-83
2021/09/04 02:09:10;;;;;;;20.08;12.63;;;15.10;99.90;;;;;;4979847;28;20457;-84
2021/09/04 02:11:35;;;;;;;19.90;12.98;;;15.10;99.90;;;;;;4996635;28;20073;-84
2021/09/04 02:14:01;;;;;;;21.83;13.93;;;15.10;99.90;;;;;;4980043;28;20053;-84
2021/09/04 02:16:27;;;;;;;20.38;13.45;;;15.10;99.90;;;;;;4996706;28;20064;-84
2021/09/04 02:18:52;;;;;;;21.05;13.40;;;15.00;99.90;;;;;;4979642;28;20382;-84
2021/09/04 02:21:17;;;;;;;21.45;13.35;;;15.00;99.90;;;;;;4979977;28;20035;-84
2021/09/04 02:23:43;;;;;;;34.60;14.73;;;15.00;99.90;;;;;;5012112;28;20042;-84
2021/09/04 02:26:08;;;;;;;22.05;13.75;;;15.00;99.90;;;;;;4979321;28;20464;-84
2021/09/04 02:28:34;;;;;;;22.38;13.32;;;15.00;99.90;;;;;;4979451;28;20038;-85
2021/09/04 02:30:59;;;;;;;22.17;14.60;;;14.90;99.90;;;;;;4979812;28;20046;-85
2021/09/04 02:33:25;;;;;;;21.50;13.48;;;15.00;99.90;;;;;;4980055;28;20108;-84
2021/09/04 02:35:50;;;;;;;23.70;14.23;;;14.90;99.90;;;;;;4979436;28;20077;-84
2021/09/04 02:38:16;;;;;;;20.58;12.68;;;14.90;99.90;;;;;;4996514;28;20042;-83
2021/09/04 02:40:41;;;;;;;25.48;14.13;;;14.90;99.90;;;;;;4979878;28;20368;-84
2021/09/04 02:43:07;;;;;;;23.42;13.93;;;14.80;99.90;;;;;;4979463;28;20035;-84
2021/09/04 02:45:32;;;;;;;23.25;13.35;;;14.90;99.90;;;;;;4979064;28;20035;-84
2021/09/04 02:47:58;;;;;;;27.25;14.75;;;14.80;99.90;;;;;;4979662;28;20125;-84
2021/09/04 02:50:23;;;;;;;24.42;15.25;;;14.90;99.90;;;;;;4996757;28;20105;-85
2021/09/04 02:52:49;;;;;;;24.80;14.15;;;14.80;99.90;;;;;;4997241;28;20042;-85
2021/09/04 02:55:14;;;;;;;23.83;15.02;;;14.80;99.90;;;;;;4990371;28;20042;-85
2021/09/04 02:57:40;;;;;;;29.38;14.80;;;14.80;99.90;;;;;;5000372;28;20053;-86
2021/09/04 03:00:06;;;;;;;28.13;15.13;;;14.80;99.90;;;;;;5000178;28;20090;-86
2021/09/04 03:02:32;;;;;;;21.38;13.93;;;14.80;99.90;;;;;;4982953;28;20042;-85
2021/09/04 03:04:57;;;;;;;22.40;13.32;;;14.80;99.90;;;;;;4983164;28;20359;-86
2021/09/04 03:07:23;;;;;;;24.60;14.63;;;14.70;99.90;;;;;;4999795;28;20041;-85
2021/09/04 03:09:49;;;;;;;24.42;15.90;;;14.70;99.90;;;;;;5000008;28;20409;-85
2021/09/04 03:12:14;;;;;;;20.63;13.15;;;14.70;99.90;;;;;;4982881;28;20034;-85
2021/09/04 03:14:39;;;;;;;26.58;16.05;;;14.70;99.90;;;;;;4999681;28;20054;-85
2021/09/04 03:17:05;;;;;;;28.52;15.48;;;14.70;99.90;;;;;;4983038;28;20053;-86
2021/09/04 03:19:31;;;;;;;25.75;15.02;;;14.70;99.90;;;;;;4982999;28;20330;-86
2021/09/04 03:21:56;;;;;;;30.00;14.50;;;14.60;99.90;;;;;;4999901;28;20042;-85
2021/09/04 03:24:22;;;;;;;23.42;14.13;;;14.60;99.90;;;;;;4999731;28;20038;-85
2021/09/04 03:26:47;;;;;;;21.33;13.93;;;14.60;99.90;;;;;;4982659;28;20133;-85
2021/09/04 03:29:13;;;;;;;23.20;14.27;;;14.60;99.90;;;;;;4999933;28;20406;-85
2021/09/04 03:31:38;;;;;;;25.13;14.52;;;14.60;99.90;;;;;;4982359;28;20072;-85
2021/09/04 03:34:04;;;;;;;25.27;14.98;;;14.60;99.90;;;;;;4982756;28;20108;-84
2021/09/04 03:36:29;;;;;;;26.30;15.35;;;14.50;99.90;;;;;;4982781;28;20038;-85
2021/09/04 03:38:55;;;;;;;29.77;16.90;;;14.50;99.90;;;;;;4982615;28;20053;-86
2021/09/04 03:41:20;;;;;;;25.98;15.55;;;14.50;99.90;;;;;;4982119;28;20398;-85
2021/09/04 03:43:46;;;;;;;26.45;15.73;;;14.50;99.90;;;;;;4999567;28;20046;-84
2021/09/04 03:46:11;;;;;;;29.75;15.85;;;14.50;99.90;;;;;;4982433;28;20078;-85
2021/09/04 03:48:37;;;;;;;26.20;15.77;;;14.50;99.90;;;;;;4999420;28;20042;-85
2021/09/04 03:51:02;;;;;;;32.65;17.08;;;14.50;99.90;;;;;;4982524;28;20073;-85
2021/09/04 03:53:28;;;;;;;30.48;17.40;;;14.40;99.90;;;;;;4982033;28;20042;-85
2021/09/04 03:55:53;;;;;;;31.15;17.50;;;14.40;99.90;;;;;;4982088;28;20368;-85
2021/09/04 03:58:19;;;;;;;26.42;16.42;;;14.40;99.90;;;;;;4981896;28;20038;-85
2021/09/04 04:00:44;;;;;;;28.80;17.08;;;14.40;99.90;;;;;;4981674;28;20410;-85
2021/09/04 04:03:10;;;;;;;30.92;17.45;;;14.40;99.90;;;;;;4982088;28;20042;-85
2021/09/04 04:05:35;;;;;;;28.50;16.30;;;14.30;99.90;;;;;;4982371;28;20128;-85
2021/09/04 04:08:00;;;;;;;30.98;17.75;;;14.40;99.90;;;;;;4980516;28;20049;-85
2021/09/04 04:10:26;;;;;;;30.35;17.98;;;14.30;99.90;;;;;;4998931;28;20378;-85
2021/09/04 04:12:51;;;;;;;30.60;16.65;;;14.30;99.90;;;;;;4998741;28;20112;-86
2021/09/04 04:15:17;;;;;;;31.27;17.17;;;14.30;99.90;;;;;;4981612;28;20081;-84
2021/09/04 04:17:42;;;;;;;30.45;16.63;;;14.30;99.90;;;;;;5001385;28;20268;-85
2021/09/04 04:20:09;;;;;;;26.92;15.32;;;14.30;99.90;;;;;;4981626;28;20048;-86
2021/09/04 04:22:34;;;;;;;36.30;16.80;;;14.30;99.90;;;;;;4981929;28;20038;-85
2021/09/04 04:25:00;;;;;;;29.70;16.67;;;14.30;99.90;;;;;;4998437;28;20069;-86
2021/09/04 04:27:25;;;;;;;30.92;18.08;;;14.30;99.90;;;;;;4981691;28;20042;-85
2021/09/04 04:29:50;;;;;;;35.63;17.85;;;14.30;99.90;;;;;;4981383;28;20429;-85
2021/09/04 04:32:16;;;;;;;28.70;17.17;;;14.30;99.90;;;;;;4981399;28;20119;-85
2021/09/04 04:34:41;;;;;;;29.20;17.40;;;14.30;99.90;;;;;;4980851;28;20057;-85
2021/09/04 04:37:07;;;;;;;29.45;17.60;;;14.40;99.90;;;;;;4998438;28;20564;-85
2021/09/04 04:39:32;;;;;;;41.47;17.75;;;14.30;99.90;;;;;;4981923;28;20038;-85
2021/09/04 04:41:58;;;;;;;30.42;16.27;;;14.40;99.90;;;;;;4982296;28;20120;-86
2021/09/04 04:44:23;;;;;;;36.95;18.60;;;14.40;99.90;;;;;;4982057;28;20034;-86
2021/09/04 04:46:49;;;;;;;33.30;18.02;;;14.40;99.90;;;;;;4981885;28;20037;-85
2021/09/04 04:49:14;;;;;;;39.78;19.20;;;14.50;99.90;;;;;;4981025;28;20116;-85
2021/09/04 04:51:40;;;;;;;44.75;19.25;;;14.50;99.90;;;;;;4981844;28;20046;-85
2021/09/04 04:54:06;;;;;;;32.10;17.20;;;14.50;99.90;;;;;;4999088;28;20415;-86
2021/09/04 04:56:31;;;;;;;34.53;18.58;;;14.60;99.90;;;;;;4982610;28;20030;-85
2021/09/04 04:58:57;;;;;;;40.10;19.95;;;14.60;99.90;;;;;;4997840;28;20541;-85
2021/09/04 05:01:22;;;;;;;42.97;19.45;;;14.60;99.90;;;;;;4981013;28;20108;-85
2021/09/04 05:03:48;;;;;;;30.38;18.00;;;14.60;99.90;;;;;;4997808;28;20092;-85
2021/09/04 05:06:14;;;;;;;33.22;17.35;;;14.60;99.90;;;;;;4997677;28;20065;-86
2021/09/04 05:08:39;;;;;;;34.17;18.30;;;14.60;99.90;;;;;;4997659;28;20381;-84
2021/09/04 05:11:04;;;;;;;35.40;18.48;;;14.70;99.90;;;;;;4980821;28;20170;-86
2021/09/04 05:13:30;;;;;;;35.42;19.45;;;14.60;99.90;;;;;;4981043;28;20112;-85
2021/09/04 05:15:55;;;;;;;41.00;19.42;;;14.70;99.90;;;;;;4980472;28;20057;-85
2021/09/04 05:18:21;;;;;;;37.40;19.15;;;14.70;99.90;;;;;;4998244;28;20370;-85
2021/09/04 05:20:47;;;;;;;46.53;19.88;;;14.70;99.90;;;;;;4980601;28;20425;-86
2021/09/04 05:23:13;;;;;;;38.38;19.45;;;14.70;99.90;;;;;;4980448;28;20034;-85
2021/09/04 05:25:38;;;;;;;40.55;20.60;;;14.80;99.90;;;;;;4980609;28;20042;-86
2021/09/04 05:28:05;;;;;;;39.13;19.83;;;14.80;99.90;;;;;;4997201;28;20046;-85
2021/09/04 05:30:30;;;;;;;37.08;17.63;;;14.80;99.90;;;;;;4980532;28;20042;-85
2021/09/04 05:32:56;;;;;;;32.65;16.40;;;14.70;99.90;;;;;;4997151;28;20295;-85
2021/09/04 05:35:21;;;;;;;40.25;17.55;;;14.70;99.90;;;;;;4997516;28;20038;-85
2021/09/04 05:37:47;;;;;;;27.90;14.80;;;14.60;99.90;;;;;;4980339;28;20301;-85
2021/09/04 05:40:13;;;;;;;31.70;14.75;;;14.60;99.90;;;;;;4980275;28;20097;-85
2021/09/04 05:42:38;;;;;;;31.38;15.23;;;14.60;99.90;;;;;;4980324;28;20042;-85
2021/09/04 05:45:05;;;;;;;34.45;16.92;;;14.60;99.90;;;;;;4979402;28;20358;-86
2021/09/04 05:47:31;;;;;;;37.60;16.42;;;14.50;99.90;;;;;;4980562;28;20037;-85
2021/09/04 05:49:56;;;;;;;27.02;14.80;;;14.50;99.90;;;;;;4996766;28;20056;-85
2021/09/04 05:52:22;;;;;;;34.75;15.65;;;14.50;99.90;;;;;;4980614;28;20096;-85
2021/09/04 05:54:47;;;;;;;32.63;15.18;;;14.50;99.90;;;;;;4996875;28;20034;-85
2021/09/04 05:57:13;;;;;;;29.33;16.30;;;14.60;99.90;;;;;;4980581;28;20049;-85
2021/09/04 05:59:38;;;;;;;49.75;16.90;;;14.50;99.90;;;;;;4979914;28;20105;-85
2021/09/04 06:02:03;;;;;;;35.67;16.88;;;14.50;99.90;;;;;;4980204;28;20034;-85
2021/09/04 06:04:29;;;;;;;28.95;14.38;;;14.60;99.90;;;;;;4980226;28;20042;-86
2021/09/04 06:06:54;;;;;;;34.08;17.90;;;14.60;99.90;;;;;;4980064;28;20130;-85
2021/09/04 06:09:22;;;;;;;35.90;18.00;;;14.60;99.90;;;;;;4997056;28;20053;-84
2021/09/04 06:11:48;;;;;;;35.70;17.02;;;14.70;99.90;;;;;;4979580;28;20045;-85
2021/09/04 06:14:14;;;;;;;36.72;18.35;;;14.70;99.90;;;;;;4980237;28;20049;-85
2021/09/04 06:16:43;;;;;;;42.42;18.60;;;14.90;99.90;;;;;;4997820;28;20030;-85
2021/09/04 06:19:09;;;;;;;34.55;18.55;;;14.90;99.90;;;;;;4996645;28;20557;-85
2021/09/04 06:21:34;;;;;;;40.00;18.23;;;15.00;99.90;;;;;;4979924;28;20078;-86
2021/09/04 06:24:01;;;;;;;39.80;17.42;;;15.10;99.90;;;;;;4979482;28;20034;-85
2021/09/04 06:26:26;;;;;;;31.52;16.58;;;15.20;99.90;;;;;;4996791;28;20330;-85
2021/09/04 06:28:52;;;;;;;36.22;18.00;;;15.20;99.90;;;;;;4979226;28;20041;-86
2021/09/04 06:31:17;;;;;;;32.78;16.52;;;15.30;99.90;;;;;;4982436;28;20433;-86
2021/09/04 06:33:43;;;;;;;34.40;16.90;;;15.30;99.90;;;;;;4983847;28;20124;-85
2021/09/04 06:36:08;;;;;;;29.38;16.15;;;15.40;99.90;;;;;;5000604;28;20074;-86
2021/09/04 06:38:34;;;;;;;28.65;15.20;;;15.50;99.90;;;;;;4983865;28;20417;-84
2021/09/04 06:41:00;;;;;;;29.52;16.27;;;15.60;99.90;;;;;;4983280;28;20030;-85
2021/09/04 06:43:26;;;;;;;30.52;16.52;;;15.60;99.90;;;;;;5000592;28;20087;-85
2021/09/04 06:45:52;;;;;;;26.35;16.75;;;15.70;99.90;;;;;;4983447;28;20078;-84
2021/09/04 06:48:17;;;;;;;28.98;16.50;;;15.60;99.90;;;;;;4984343;28;20038;-85
2021/09/04 06:50:43;;;;;;;25.23;15.52;;;15.60;99.90;;;;;;4987644;28;20301;-85
2021/09/04 06:53:08;;;;;;;29.77;16.00;;;15.60;99.90;;;;;;4983567;28;20061;-84
2021/09/04 06:55:33;;;;;;;26.60;15.45;;;15.60;99.90;;;;;;4983498;28;20489;-84
2021/09/04 06:57:59;;;;;;;26.85;14.13;;;15.70;99.90;;;;;;4983312;28;20054;-84
2021/09/04 07:00:24;;;;;;;22.65;13.38;;;15.70;99.90;;;;;;4983167;28;20082;-85
2021/09/04 07:02:50;;;;;;;24.35;15.10;;;15.80;99.90;;;;;;4999778;28;20688;-85
2021/09/04 07:05:17;;;;;;;27.77;15.00;;;15.90;99.90;;;;;;4983327;28;20042;-85
2021/09/04 07:07:42;;;;;;;23.65;12.98;;;16.00;99.90;;;;;;4999984;28;20068;-85
2021/09/04 07:10:09;;;;;;;31.23;15.02;;;16.00;99.90;;;;;;4999920;28;20125;-85
2021/09/04 07:12:34;;;;;;;26.42;14.65;;;16.10;99.90;;;;;;4983182;28;20073;-86
2021/09/04 07:14:59;;;;;;;23.10;15.65;;;16.10;99.90;;;;;;4982671;28;20425;-85
2021/09/04 07:17:25;;;;;;;36.38;17.38;;;16.10;99.90;;;;;;4983194;28;20046;-85
2021/09/04 07:19:50;;;;;;;31.25;16.63;;;16.20;99.90;;;;;;4999537;28;20039;-86
2021/09/04 07:22:16;;;;;;;28.15;15.85;;;16.30;99.90;;;;;;4982665;28;20031;-84
2021/09/04 07:24:41;;;;;;;28.80;16.10;;;16.30;99.90;;;;;;5000010;28;20054;-86
2021/09/04 07:27:07;;;;;;;25.77;15.57;;;16.30;99.90;;;;;;4999719;28;20129;-86
2021/09/04 07:29:32;;;;;;;21.45;15.00;;;16.40;99.90;;;;;;4982630;28;20313;-85
2021/09/04 07:31:58;;;;;;;21.17;14.77;;;16.40;99.90;;;;;;4999589;28;20031;-86
2021/09/04 07:34:24;;;;;;;29.58;15.75;;;16.50;99.90;;;;;;4982497;28;20125;-85
2021/09/04 07:36:49;;;;;;;23.27;12.60;;;16.40;99.90;;;;;;4982425;28;20038;-86
2021/09/04 07:39:15;;;;;;;21.95;13.68;;;16.50;99.90;;;;;;5014694;28;20218;-85
2021/09/04 07:41:40;;;;;;;26.45;14.98;;;16.50;99.90;;;;;;4982228;28;20049;-85
2021/09/04 07:44:06;;;;;;;21.75;13.55;;;16.60;99.90;;;;;;4982524;28;20050;-85
2021/09/04 07:46:31;;;;;;;21.08;13.10;;;16.70;99.90;;;;;;4983431;28;20034;-86
2021/09/04 07:48:57;;;;;;;21.40;12.45;;;16.70;99.90;;;;;;4986060;28;20046;-86
2021/09/04 07:51:22;;;;;;;20.67;12.50;;;16.80;99.90;;;;;;4985068;28;20038;-85
2021/09/04 07:53:47;;;;;;;21.27;12.85;;;16.80;99.80;;;;;;4982855;28;20035;-84
2021/09/04 07:56:13;;;;;;;21.75;11.95;;;16.80;99.90;;;;;;4999503;28;20041;-84
2021/09/04 07:58:39;;;;;;;23.13;13.35;;;16.90;99.80;;;;;;5000341;28;20042;-84
2021/09/04 08:01:04;;;;;;;22.20;12.77;;;16.90;99.40;;;;;;4984344;28;20045;-85
2021/09/04 08:03:30;;;;;;;22.77;12.73;;;16.90;99.60;;;;;;4998988;28;20034;-84
2021/09/04 08:05:55;;;;;;;17.15;11.20;;;16.90;99.60;;;;;;4999565;28;20046;-85
2021/09/04 08:08:22;;;;;;;16.58;11.35;;;16.90;99.50;;;;;;4983511;28;20317;-85
2021/09/04 08:10:47;;;;;;;15.48;10.82;;;16.90;99.30;;;;;;4981815;28;20464;-85
2021/09/04 08:13:13;;;;;;;20.40;10.98;;;16.90;99.50;;;;;;4998936;28;20070;-84
2021/09/04 08:15:39;;;;;;;18.50;10.43;;;16.90;99.30;;;;;;4981213;28;20104;-86
2021/09/04 08:18:05;;;;;;;16.92;11.15;;;16.90;99.20;;;;;;4998929;28;20030;-85
2021/09/04 08:20:30;;;;;;;16.15;10.55;;;16.80;99.10;;;;;;4981792;28;20112;-85
2021/09/04 08:22:56;;;;;;;18.30;10.55;;;16.80;99.20;;;;;;4998869;28;20073;-85
2021/09/04 08:25:21;;;;;;;16.58;11.13;;;16.80;99.50;;;;;;4999029;28;20346;-86
2021/09/04 08:27:47;;;;;;;15.85;10.27;;;16.90;99.40;;;;;;4998360;28;20050;-86
2021/09/04 08:30:13;;;;;;;12.80;9.23;;;16.90;99.30;;;;;;4981855;28;20042;-84
2021/09/04 08:32:39;;;;;;;16.63;10.65;;;17.00;99.20;;;;;;4981367;28;20034;-85
2021/09/04 08:35:05;;;;;;;18.08;10.77;;;17.00;99.00;;;;;;4981056;28;20124;-85
2021/09/04 08:37:30;;;;;;;18.58;11.43;;;16.90;99.10;;;;;;4998606;28;20437;-84
2021/09/04 08:39:56;;;;;;;22.80;12.23;;;16.90;99.20;;;;;;4981729;28;20042;-85
2021/09/04 08:42:21;;;;;;;15.80;10.32;;;16.90;98.90;;;;;;4981673;28;20128;-85
2021/09/04 08:44:47;;;;;;;18.60;11.95;;;16.90;99.30;;;;;;4981261;28;20129;-86
2021/09/04 08:47:12;;;;;;;19.50;12.65;;;17.00;98.80;;;;;;4981532;28;20046;-85
2021/09/04 08:49:39;;;;;;;20.65;12.40;;;16.90;98.80;;;;;;4997845;28;20066;-85
2021/09/04 08:52:06;;;;;;;18.13;11.32;;;16.90;98.80;;;;;;4997705;28;20587;-85
2021/09/04 08:54:31;;;;;;;19.58;11.95;;;16.90;98.90;;;;;;4997699;28;20148;-85
2021/09/04 08:56:57;;;;;;;18.50;11.75;;;16.90;99.10;;;;;;4982552;28;20074;-86
2021/09/04 08:59:23;;;;;;;20.42;12.52;;;16.90;98.90;;;;;;4999817;28;20408;-86
2021/09/04 09:01:48;;;;;;;18.15;11.68;;;16.90;99.00;;;;;;4981124;28;20045;-85
2021/09/04 09:04:16;;;;;;;19.88;10.65;;;16.90;99.00;;;;;;4998083;28;20034;-86
2021/09/04 09:06:43;;;;;;;23.20;11.52;;;16.90;99.00;;;;;;4997586;28;20038;-85
2021/09/04 09:09:20;;;;;;;21.85;11.15;;;16.90;99.00;;;;;;4997871;28;20669;-86
2021/09/04 09:11:50;;;;;;;17.48;10.65;;;16.90;98.90;;;;;;4979956;28;20042;-85
2021/09/04 09:14:15;;;;;;;19.85;10.57;;;16.90;99.00;;;;;;4980743;28;20321;-86
2021/09/04 09:16:49;;;;;;;20.08;11.25;;;17.00;99.10;;;;;;4997332;28;20039;-86
2021/09/04 09:19:15;;;;;;;20.52;12.20;;;17.00;98.90;;;;;;4997994;28;20595;-84
2021/09/04 09:21:41;;;;;;;21.73;11.05;;;17.10;98.60;;;;;;4980175;28;20052;-85
2021/09/04 09:24:15;;;;;;;24.13;12.95;;;17.20;98.80;;;;;;4980486;28;20298;-85
2021/09/04 09:27:13;;;;;;;23.88;13.38;;;17.30;98.50;;;;;;4996680;28;20034;-85
2021/09/04 09:29:38;;;;;;;20.35;11.90;;;17.30;98.30;;;;;;4965126;28;20035;-85
2021/09/04 09:32:06;;;;;;;21.35;12.90;;;17.40;98.50;;;;;;4980484;28;20044;-86
2021/09/04 09:34:36;;;;;;;23.17;12.65;;;17.40;98.20;;;;;;4997268;28;20535;-85
2021/09/04 09:37:03;;;;;;;21.23;12.52;;;17.40;98.20;;;;;;4980588;28;20133;-84
2021/09/04 09:39:32;;;;;;;22.15;12.52;;;17.40;98.30;;;;;;4980445;28;20041;-85
2021/09/04 09:41:59;;;;;;;22.95;13.38;;;17.50;98.20;;;;;;4996935;28;20030;-85
2021/09/04 09:44:29;;;;;;;20.27;11.60;;;17.50;98.20;;;;;;4979874;28;20030;-85
2021/09/04 09:46:57;;;;;;;23.10;12.55;;;17.50;98.40;;;;;;4980407;28;20045;-85
2021/09/04 09:49:34;;;;;;;23.17;12.38;;;17.60;98.20;;;;;;4996308;28;20046;-86
2021/09/04 09:52:03;;;;;;;18.90;11.02;;;17.60;98.00;;;;;;4980143;28;20030;-84
2021/09/04 09:54:31;;;;;;;21.75;11.30;;;17.50;98.10;;;;;;4980499;28;20046;-86
2021/09/04 09:56:58;;;;;;;17.98;9.95;;;17.50;98.30;;;;;;4996713;28;20042;-84
2021/09/04 09:59:28;;;;;;;17.35;9.82;;;17.60;98.20;;;;;;4979939;28;20054;-86
2021/09/04 10:01:55;;;;;;;20.77;12.05;;;17.60;98.10;;;;;;4996615;28;20330;-86
2021/09/04 10:04:24;;;;;;;18.33;10.65;;;17.60;97.90;;;;;;4995387;28;20365;-85
2021/09/04 10:06:50;;;;;;;26.00;13.43;;;17.60;98.10;;;;;;4979926;28;20038;-87
2021/09/04 10:09:16;;;;;;;20.27;11.68;;;17.70;98.10;;;;;;4997607;28;20045;-87
2021/09/04 10:11:41;;;;;;;24.23;12.80;;;17.70;98.20;;;;;;4996687;28;20026;-85
2021/09/04 10:14:07;;;;;;;23.38;12.32;;;17.80;98.00;;;;;;4979930;28;20409;-86
2021/09/04 10:16:33;;;;;;;17.08;10.80;;;17.80;98.10;;;;;;4980173;28;20037;-86
2021/09/04 10:19:01;;;;;;;18.08;10.35;;;17.90;97.80;;;;;;4996277;28;20035;-87
2021/09/04 10:21:26;;;;;;;20.38;11.80;;;17.90;97.80;;;;;;4980117;28;20109;-86
2021/09/04 10:23:54;;;;;;;17.75;11.05;;;17.90;97.70;;;;;;4996288;28;20030;-85
2021/09/04 10:26:29;;;;;;;19.30;11.38;;;17.90;97.70;;;;;;4997095;28;20049;-86
2021/09/04 10:29:16;;;;;;;16.15;8.98;;;17.90;97.50;;;;;;4996727;28;20132;-85
2021/09/04 10:32:02;;;;;;;15.90;9.35;;;17.80;97.70;;;;;;4997104;28;20500;-85
2021/09/04 10:34:39;;;;;;;16.90;11.13;;;17.80;97.70;;;;;;4995212;28;20367;-85
2021/09/04 10:37:17;;;;;;;17.85;9.43;;;17.70;97.70;;;;;;4979789;28;20054;-85
2021/09/04 10:40:10;;;;;;;15.07;9.02;;;17.70;97.90;;;;;;4996666;28;20035;-84
2021/09/04 10:42:41;;;;;;;19.40;10.90;;;17.70;97.90;;;;;;4996388;28;20049;-86
2021/09/04 10:45:09;;;;;;;18.85;11.27;;;17.60;97.90;;;;;;4996014;28;20354;-85
2021/09/04 10:47:56;;;;;;;20.80;11.88;;;17.60;98.40;;;;;;4995957;28;20432;-85
2021/09/04 10:50:41;;;;;;;22.15;12.00;;;17.60;98.00;;;;;;4996275;28;20137;-85
2021/09/04 10:53:07;;;;;;;18.48;10.07;;;17.60;97.90;;;;;;4996897;28;20046;-85
2021/09/04 10:55:42;;;;;;;21.33;11.52;;;17.60;97.90;;;;;;4979835;28;20138;-86
2021/09/04 10:58:18;;;;;;;16.40;9.88;;;17.70;97.80;;;;;;4981975;28;20030;-85
2021/09/04 11:00:49;;;;;;;16.88;10.07;;;17.80;97.80;;;;;;4981813;28;20038;-85
2021/09/04 11:03:19;;;;;;;16.90;10.18;;;17.80;98.10;;;;;;4979633;28;20066;-86
2021/09/04 11:06:05;;;;;;;17.25;10.00;;;17.90;97.80;;;;;;4996866;28;20084;-84
2021/09/04 11:08:33;;;;;;;15.70;10.02;;;17.90;98.00;;;;;;4997557;28;20049;-85
2021/09/04 11:11:37;;;;;;;15.48;9.30;;;18.00;97.70;;;;;;4980523;28;20104;-85
2021/09/04 11:14:23;;;;;;;14.15;8.25;;;18.00;97.40;;;;;;4920514;29;20055;-85
2021/09/04 11:16:55;;;;;;;15.00;9.80;;;18.00;97.60;;;;;;4921984;29;20450;-84
2021/09/04 11:19:32;;;;;;;18.10;10.85;;;17.90;97.50;;;;;;4969629;28;20042;-85
2021/09/04 11:22:12;;;;;;;17.15;9.63;;;17.90;97.60;;;;;;4982777;28;20286;-85
2021/09/04 11:24:42;;;;;;;16.75;10.68;;;17.90;97.90;;;;;;4983063;28;20042;-86
2021/09/04 11:27:19;;;;;;;18.20;11.40;;;17.90;97.80;;;;;;4999258;28;20382;-84
2021/09/04 11:29:53;;;;;;;16.85;10.93;;;17.80;97.80;;;;;;4982779;28;20053;-85
2021/09/04 11:32:28;;;;;;;16.17;10.35;;;17.80;97.90;;;;;;5000057;28;20030;-85
2021/09/04 11:34:56;;;;;;;16.92;10.35;;;17.80;97.80;;;;;;4999557;28;20030;-85
2021/09/04 11:37:23;;;;;;;17.15;10.73;;;17.80;97.90;;;;;;4999748;28;20117;-85
2021/09/04 11:39:51;;;;;;;17.15;11.13;;;17.90;97.70;;;;;;5000065;28;20030;-85
2021/09/04 11:42:19;;;;;;;14.82;10.15;;;17.90;97.80;;;;;;4982536;28;20037;-86
2021/09/04 11:45:08;;;;;;;14.43;10.32;;;18.00;97.50;;;;;;4999661;28;20053;-85
2021/09/04 11:47:36;;;;;;;13.82;9.10;;;18.10;97.00;;;;;;4982091;28;20133;-85
2021/09/04 11:50:06;;;;;;;15.38;10.05;;;18.10;97.20;;;;;;4998601;28;20097;-83
2021/09/04 11:52:37;;;;;;;18.25;10.40;;;18.20;97.30;;;;;;4982277;28;20104;-86
2021/09/04 11:55:12;;;;;;;15.30;10.32;;;18.30;97.10;;;;;;4998827;28;20049;-85
2021/09/04 11:57:40;;;;;;;13.50;8.90;;;18.30;96.60;;;;;;4999306;28;20045;-86
2021/09/04 12:00:07;;;;;;;17.08;10.05;;;18.40;96.50;;;;;;4999264;28;20046;-85
2021/09/04 12:02:35;;;;;;;14.48;9.68;;;18.40;96.30;;;;;;4999275;28;20034;-85
2021/09/04 12:05:04;;;;;;;16.10;10.65;;;18.40;96.20;;;;;;4999236;28;20053;-86
2021/09/04 12:07:30;;;;;;;14.35;9.82;;;18.50;96.00;;;;;;4981968;28;20045;-87
2021/09/04 12:09:57;;;;;;;15.93;9.90;;;18.40;95.70;;;;;;4982181;28;20049;-86
2021/09/04 12:12:25;;;;;;;17.17;10.75;;;18.40;96.00;;;;;;4998769;28;20049;-85
2021/09/04 12:14:52;;;;;;;16.70;10.27;;;18.40;95.70;;;;;;4997953;28;20042;-86
2021/09/04 12:17:17;;;;;;;15.88;9.50;;;18.40;95.80;;;;;;4999378;28;20050;-85
2021/09/04 12:19:43;;;;;;;15.02;9.80;;;18.40;95.80;;;;;;4999199;28;20120;-86
2021/09/04 12:22:09;;;;;;;15.57;9.82;;;18.50;95.80;;;;;;4998571;28;20038;-86
2021/09/04 12:24:34;;;;;;;18.73;11.00;;;18.60;95.70;;;;;;4998881;28;20045;-86
2021/09/04 12:27:00;;;;;;;17.25;10.15;;;18.70;95.10;;;;;;4998768;28;20101;-86
2021/09/04 12:29:32;;;;;;;18.42;10.13;;;18.80;94.80;;;;;;4997873;28;20046;-86